sensor_id;sensor_type;location;lat;lon;timestamp;P1;durP1;ratioP1;P2;durP2;ratioP2
3633;SDS011;1833;42.718;23.270;2022-10-22T08:56:02;45.10;;;36.93;;
3633;SDS011;1833;42.718;23.270;2022-10-22T08:58:31;42.23;;;37.03;;
3633;SDS011;1833;42.718;23.270;2022-10-22T09:01:02;44.40;;;38.37;;
3633;SDS011;1833;42.718;23.270;2022-10-22T09:03:35;44.97;;;38.07;;
3633;SDS011;1833;42.718;23.270;2022-10-22T09:06:04;44.63;;;38.23;;
3633;SDS011;1833;42.718;23.270;2022-10-22T09:08:34;41.50;;;37.10;;
3633;SDS011;1833;42.718;23.270;2022-10-22T09:11:05;43.20;;;37.27;;
3633;SDS011;1833;42.718;23.270;2022-10-22T09:13:32;45.23;;;37.83;;
3633;SDS011;1833;42.718;23.270;2022-10-22T09:16:00;42.23;;;37.70;;
3633;SDS011;1833;42.718;23.270;2022-10-22T09:18:34;47.27;;;39.27;;
3633;SDS011;1833;42.718;23.270;2022-10-22T09:21:05;42.97;;;38.30;;
3633;SDS011;1833;42.718;23.270;2022-10-22T09:23:47;47.97;;;36.40;;
3633;SDS011;1833;42.718;23.270;2022-10-22T09:26:18;41.73;;;37.37;;
3633;SDS011;1833;42.718;23.270;2022-10-22T09:28:48;39.07;;;34.97;;
3633;SDS011;1833;42.718;23.270;2022-10-22T09:31:15;44.60;;;38.20;;
3633;SDS011;1833;42.718;23.270;2022-10-22T09:33:43;43.67;;;37.73;;
3633;SDS011;1833;42.718;23.270;2022-10-22T09:36:12;42.50;;;38.30;;
3633;SDS011;1833;42.718;23.270;2022-10-22T09:38:43;41.23;;;36.83;;
3633;SDS011;1833;42.718;23.270;2022-10-22T09:41:11;46.13;;;39.67;;
3633;SDS011;1833;42.718;23.270;2022-10-22T09:43:40;42.07;;;37.83;;
3633;SDS011;1833;42.718;23.270;2022-10-22T09:46:12;41.20;;;36.80;;
3633;SDS011;1833;42.718;23.270;2022-10-22T09:48:41;41.50;;;36.47;;
3633;SDS011;1833;42.718;23.270;2022-10-22T09:51:11;39.97;;;35.80;;
3633;SDS011;1833;42.718;23.270;2022-10-22T09:53:40;41.37;;;37.17;;
3633;SDS011;1833;42.718;23.270;2022-10-22T09:56:09;42.73;;;37.90;;
3633;SDS011;1833;42.718;23.270;2022-10-22T09:58:42;43.30;;;36.70;;
3633;SDS011;1833;42.718;23.270;2022-10-22T10:01:14;44.00;;;37.30;;
3633;SDS011;1833;42.718;23.270;2022-10-22T10:03:42;41.80;;;37.27;;
3633;SDS011;1833;42.718;23.270;2022-10-22T10:06:10;40.87;;;36.57;;
3633;SDS011;1833;42.718;23.270;2022-10-22T10:08:37;44.63;;;39.43;;
3633;SDS011;1833;42.718;23.270;2022-10-22T10:11:05;44.27;;;39.17;;
3633;SDS011;1833;42.718;23.270;2022-10-22T10:13:46;44.47;;;38.87;;
3633;SDS011;1833;42.718;23.270;2022-10-22T10:16:23;48.00;;;38.60;;
3633;SDS011;1833;42.718;23.270;2022-10-22T10:18:56;46.10;;;39.30;;
3633;SDS011;1833;42.718;23.270;2022-10-22T10:21:30;43.83;;;39.10;;
3633;SDS011;1833;42.718;23.270;2022-10-22T10:24:02;45.40;;;39.90;;
3633;SDS011;1833;42.718;23.270;2022-10-22T10:26:33;43.40;;;38.80;;
3633;SDS011;1833;42.718;23.270;2022-10-22T10:29:09;45.37;;;40.30;;
3633;SDS011;1833;42.718;23.270;2022-10-22T10:31:42;43.67;;;39.03;;
3633;SDS011;1833;42.718;23.270;2022-10-22T10:34:15;42.13;;;37.77;;
3633;SDS011;1833;42.718;23.270;2022-10-22T10:36:44;46.00;;;37.53;;
3633;SDS011;1833;42.718;23.270;2022-10-22T10:39:17;49.43;;;40.30;;
3633;SDS011;1833;42.718;23.270;2022-10-22T10:41:50;46.33;;;39.97;;
3633;SDS011;1833;42.718;23.270;2022-10-22T10:44:24;48.63;;;40.57;;
3633;SDS011;1833;42.718;23.270;2022-10-22T10:46:57;41.43;;;36.93;;
3633;SDS011;1833;42.718;23.270;2022-10-22T10:49:27;45.60;;;38.00;;
3633;SDS011;1833;42.718;23.270;2022-10-22T10:51:57;44.20;;;39.40;;
3633;SDS011;1833;42.718;23.270;2022-10-22T10:54:30;46.93;;;41.23;;
3633;SDS011;1833;42.718;23.270;2022-10-22T10:57:02;45.80;;;40.77;;
3633;SDS011;1833;42.718;23.270;2022-10-22T10:59:37;46.43;;;38.70;;
3633;SDS011;1833;42.718;23.270;2022-10-22T11:02:12;44.50;;;39.10;;
3633;SDS011;1833;42.718;23.270;2022-10-22T11:04:49;53.90;;;40.97;;
3633;SDS011;1833;42.718;23.270;2022-10-22T11:07:21;45.30;;;40.20;;
3633;SDS011;1833;42.718;23.270;2022-10-22T11:09:52;43.63;;;39.20;;
3633;SDS011;1833;42.718;23.270;2022-10-22T11:12:20;44.60;;;38.30;;
3633;SDS011;1833;42.718;23.270;2022-10-22T11:14:54;44.40;;;39.67;;
3633;SDS011;1833;42.718;23.270;2022-10-22T11:17:23;41.97;;;37.53;;
3633;SDS011;1833;42.718;23.270;2022-10-22T11:19:54;43.37;;;39.07;;
3633;SDS011;1833;42.718;23.270;2022-10-22T11:22:25;46.03;;;39.75;;
3633;SDS011;1833;42.718;23.270;2022-10-22T11:24:55;42.38;;;38.10;;
3633;SDS011;1833;42.718;23.270;2022-10-22T11:27:27;42.75;;;38.45;;
3633;SDS011;1833;42.718;23.270;2022-10-22T11:29:58;42.65;;;38.13;;
3633;SDS011;1833;42.718;23.270;2022-10-22T11:32:27;47.60;;;39.70;;
3633;SDS011;1833;42.718;23.270;2022-10-22T11:34:55;43.97;;;39.42;;
3633;SDS011;1833;42.718;23.270;2022-10-22T11:37:25;44.25;;;38.85;;
3633;SDS011;1833;42.718;23.270;2022-10-22T11:40:00;44.63;;;39.05;;
3633;SDS011;1833;42.718;23.270;2022-10-22T11:42:30;43.58;;;38.53;;
3633;SDS011;1833;42.718;23.270;2022-10-22T11:45:00;44.17;;;38.70;;
3633;SDS011;1833;42.718;23.270;2022-10-22T11:47:28;44.33;;;38.38;;
3633;SDS011;1833;42.718;23.270;2022-10-22T11:49:58;42.78;;;38.63;;
3633;SDS011;1833;42.718;23.270;2022-10-22T11:52:39;41.88;;;37.47;;
3633;SDS011;1833;42.718;23.270;2022-10-22T11:57:53;41.05;;;36.97;;
3633;SDS011;1833;42.718;23.270;2022-10-22T12:00:33;43.95;;;39.25;;
3633;SDS011;1833;42.718;23.270;2022-10-22T12:03:02;40.92;;;36.65;;
3633;SDS011;1833;42.718;23.270;2022-10-22T12:05:31;43.08;;;38.53;;
3633;SDS011;1833;42.718;23.270;2022-10-22T12:08:00;41.10;;;37.00;;
3633;SDS011;1833;42.718;23.270;2022-10-22T12:10:29;41.00;;;36.67;;
3633;SDS011;1833;42.718;23.270;2022-10-22T12:13:01;39.97;;;35.75;;
3633;SDS011;1833;42.718;23.270;2022-10-22T12:15:29;41.25;;;36.85;;
3633;SDS011;1833;42.718;23.270;2022-10-22T12:17:59;44.53;;;37.45;;
3633;SDS011;1833;42.718;23.270;2022-10-22T12:20:28;42.13;;;37.55;;
3633;SDS011;1833;42.718;23.270;2022-10-22T12:22:55;39.10;;;35.10;;
3633;SDS011;1833;42.718;23.270;2022-10-22T12:25:23;41.57;;;36.70;;
3633;SDS011;1833;42.718;23.270;2022-10-22T12:27:52;40.80;;;36.90;;
3633;SDS011;1833;42.718;23.270;2022-10-22T12:30:24;40.33;;;36.03;;
3633;SDS011;1833;42.718;23.270;2022-10-22T12:32:52;43.00;;;38.50;;
3633;SDS011;1833;42.718;23.270;2022-10-22T12:35:23;41.70;;;37.30;;
3633;SDS011;1833;42.718;23.270;2022-10-22T12:37:53;43.10;;;38.50;;
3633;SDS011;1833;42.718;23.270;2022-10-22T12:40:21;40.83;;;36.93;;
3633;SDS011;1833;42.718;23.270;2022-10-22T12:42:49;40.50;;;36.47;;
3633;SDS011;1833;42.718;23.270;2022-10-22T12:45:17;44.90;;;40.20;;
3633;SDS011;1833;42.718;23.270;2022-10-22T12:47:45;40.53;;;36.13;;
3633;SDS011;1833;42.718;23.270;2022-10-22T12:50:16;45.87;;;36.53;;
3633;SDS011;1833;42.718;23.270;2022-10-22T12:52:46;41.70;;;37.53;;
3633;SDS011;1833;42.718;23.270;2022-10-22T12:55:14;41.77;;;36.07;;
3633;SDS011;1833;42.718;23.270;2022-10-22T12:57:41;40.77;;;36.67;;
3633;SDS011;1833;42.718;23.270;2022-10-22T13:00:19;41.70;;;36.67;;
3633;SDS011;1833;42.718;23.270;2022-10-22T13:02:47;41.03;;;36.80;;
3633;SDS011;1833;42.718;23.270;2022-10-22T13:05:15;41.73;;;37.40;;
3633;SDS011;1833;42.718;23.270;2022-10-22T13:07:45;42.13;;;37.70;;
3633;SDS011;1833;42.718;23.270;2022-10-22T13:10:18;40.43;;;36.20;;
3633;SDS011;1833;42.718;23.270;2022-10-22T13:12:48;45.40;;;35.20;;
3633;SDS011;1833;42.718;23.270;2022-10-22T13:18:02;41.13;;;36.83;;
3633;SDS011;1833;42.718;23.270;2022-10-22T13:20:30;40.30;;;36.20;;
3633;SDS011;1833;42.718;23.270;2022-10-22T13:23:02;38.33;;;34.63;;
3633;SDS011;1833;42.718;23.270;2022-10-22T13:25:32;38.00;;;34.13;;
3633;SDS011;1833;42.718;23.270;2022-10-22T13:28:00;39.90;;;34.60;;
3633;SDS011;1833;42.718;23.270;2022-10-22T13:30:30;39.27;;;35.23;;
3633;SDS011;1833;42.718;23.270;2022-10-22T13:32:58;35.30;;;32.00;;
3633;SDS011;1833;42.718;23.270;2022-10-22T13:35:26;38.57;;;34.43;;
3633;SDS011;1833;42.718;23.270;2022-10-22T13:37:54;38.13;;;34.13;;
3633;SDS011;1833;42.718;23.270;2022-10-22T13:40:21;39.53;;;35.47;;
3633;SDS011;1833;42.718;23.270;2022-10-22T13:42:50;39.30;;;34.13;;
3633;SDS011;1833;42.718;23.270;2022-10-22T13:45:18;39.23;;;35.40;;
3633;SDS011;1833;42.718;23.270;2022-10-22T13:47:47;37.13;;;33.63;;
3633;SDS011;1833;42.718;23.270;2022-10-22T13:50:16;40.20;;;35.90;;
3633;SDS011;1833;42.718;23.270;2022-10-22T13:52:45;37.33;;;33.40;;
3633;SDS011;1833;42.718;23.270;2022-10-22T13:55:14;38.83;;;34.90;;
3633;SDS011;1833;42.718;23.270;2022-10-22T13:57:41;39.17;;;35.23;;
3633;SDS011;1833;42.718;23.270;2022-10-22T14:00:14;40.30;;;36.20;;
3633;SDS011;1833;42.718;23.270;2022-10-22T14:02:43;36.70;;;33.00;;
3633;SDS011;1833;42.718;23.270;2022-10-22T14:05:10;36.33;;;32.60;;
3633;SDS011;1833;42.718;23.270;2022-10-22T14:07:38;41.37;;;35.67;;
3633;SDS011;1833;42.718;23.270;2022-10-22T14:10:12;39.37;;;35.13;;
3633;SDS011;1833;42.718;23.270;2022-10-22T14:12:40;36.07;;;32.37;;
3633;SDS011;1833;42.718;23.270;2022-10-22T14:15:08;38.93;;;34.67;;
3633;SDS011;1833;42.718;23.270;2022-10-22T14:17:38;37.73;;;33.67;;
3633;SDS011;1833;42.718;23.270;2022-10-22T14:20:08;45.23;;;37.30;;
3633;SDS011;1833;42.718;23.270;2022-10-22T14:22:36;73.07;;;48.73;;
3633;SDS011;1833;42.718;23.270;2022-10-22T14:25:03;41.80;;;37.30;;
3633;SDS011;1833;42.718;23.270;2022-10-22T14:27:31;38.97;;;34.40;;
3633;SDS011;1833;42.718;23.270;2022-10-22T14:29:58;38.57;;;34.57;;
3633;SDS011;1833;42.718;23.270;2022-10-22T14:32:25;39.03;;;32.73;;
3633;SDS011;1833;42.718;23.270;2022-10-22T14:34:54;36.73;;;32.77;;
3633;SDS011;1833;42.718;23.270;2022-10-22T14:37:23;38.30;;;32.50;;
3633;SDS011;1833;42.718;23.270;2022-10-22T14:39:50;34.83;;;31.43;;
3633;SDS011;1833;42.718;23.270;2022-10-22T14:42:24;37.37;;;33.37;;
3633;SDS011;1833;42.718;23.270;2022-10-22T14:44:51;37.23;;;33.47;;
3633;SDS011;1833;42.718;23.270;2022-10-22T14:47:18;38.90;;;34.73;;
3633;SDS011;1833;42.718;23.270;2022-10-22T14:49:46;43.10;;;36.30;;
3633;SDS011;1833;42.718;23.270;2022-10-22T14:52:15;43.23;;;32.40;;
3633;SDS011;1833;42.718;23.270;2022-10-22T14:54:44;40.67;;;36.27;;
3633;SDS011;1833;42.718;23.270;2022-10-22T14:57:12;38.50;;;32.43;;
3633;SDS011;1833;42.718;23.270;2022-10-22T14:59:40;38.23;;;33.90;;
3633;SDS011;1833;42.718;23.270;2022-10-22T15:02:09;36.43;;;32.83;;
3633;SDS011;1833;42.718;23.270;2022-10-22T15:04:38;43.30;;;36.63;;
3633;SDS011;1833;42.718;23.270;2022-10-22T15:07:05;46.10;;;34.83;;
3633;SDS011;1833;42.718;23.270;2022-10-22T15:09:34;41.03;;;35.03;;
3633;SDS011;1833;42.718;23.270;2022-10-22T15:12:02;37.80;;;33.83;;
3633;SDS011;1833;42.718;23.270;2022-10-22T15:14:29;37.43;;;33.33;;
3633;SDS011;1833;42.718;23.270;2022-10-22T15:16:57;38.30;;;34.13;;
3633;SDS011;1833;42.718;23.270;2022-10-22T15:19:25;45.70;;;34.70;;
3633;SDS011;1833;42.718;23.270;2022-10-22T15:21:53;41.93;;;33.77;;
3633;SDS011;1833;42.718;23.270;2022-10-22T15:24:20;37.60;;;33.20;;
3633;SDS011;1833;42.718;23.270;2022-10-22T15:26:50;37.13;;;33.00;;
3633;SDS011;1833;42.718;23.270;2022-10-22T15:29:18;36.90;;;33.10;;
3633;SDS011;1833;42.718;23.270;2022-10-22T15:31:46;39.53;;;33.67;;
3633;SDS011;1833;42.718;23.270;2022-10-22T15:34:17;35.93;;;32.20;;
3633;SDS011;1833;42.718;23.270;2022-10-22T15:36:45;45.00;;;32.90;;
3633;SDS011;1833;42.718;23.270;2022-10-22T15:39:12;37.90;;;34.07;;
3633;SDS011;1833;42.718;23.270;2022-10-22T15:41:40;37.20;;;33.27;;
3633;SDS011;1833;42.718;23.270;2022-10-22T15:44:09;36.37;;;32.53;;
3633;SDS011;1833;42.718;23.270;2022-10-22T15:46:40;46.67;;;35.83;;
3633;SDS011;1833;42.718;23.270;2022-10-22T15:49:07;40.53;;;34.60;;
3633;SDS011;1833;42.718;23.270;2022-10-22T15:51:35;81.23;;;44.63;;
3633;SDS011;1833;42.718;23.270;2022-10-22T15:54:02;91.23;;;45.50;;
3633;SDS011;1833;42.718;23.270;2022-10-22T15:56:30;55.70;;;36.93;;
3633;SDS011;1833;42.718;23.270;2022-10-22T15:58:58;67.67;;;38.80;;
3633;SDS011;1833;42.718;23.270;2022-10-22T16:01:28;46.67;;;35.90;;
3633;SDS011;1833;42.718;23.270;2022-10-22T16:03:56;40.97;;;33.97;;
3633;SDS011;1833;42.718;23.270;2022-10-22T16:06:27;39.50;;;33.70;;
3633;SDS011;1833;42.718;23.270;2022-10-22T16:08:55;39.83;;;33.90;;
3633;SDS011;1833;42.718;23.270;2022-10-22T16:11:23;39.60;;;33.53;;
3633;SDS011;1833;42.718;23.270;2022-10-22T16:16:57;46.70;;;34.03;;
3633;SDS011;1833;42.718;23.270;2022-10-22T16:19:25;58.10;;;34.73;;
3633;SDS011;1833;42.718;23.270;2022-10-22T16:21:56;38.57;;;32.20;;
3633;SDS011;1833;42.718;23.270;2022-10-22T16:24:26;43.70;;;35.83;;
3633;SDS011;1833;42.718;23.270;2022-10-22T16:26:53;43.07;;;34.57;;
3633;SDS011;1833;42.718;23.270;2022-10-22T16:29:21;46.17;;;32.47;;
3633;SDS011;1833;42.718;23.270;2022-10-22T16:31:48;42.20;;;33.40;;
3633;SDS011;1833;42.718;23.270;2022-10-22T16:34:17;38.57;;;34.47;;
3633;SDS011;1833;42.718;23.270;2022-10-22T16:36:44;44.67;;;33.60;;
3633;SDS011;1833;42.718;23.270;2022-10-22T16:39:13;40.87;;;35.33;;
3633;SDS011;1833;42.718;23.270;2022-10-22T16:41:41;39.97;;;33.47;;
3633;SDS011;1833;42.718;23.270;2022-10-22T16:44:08;56.57;;;34.77;;
3633;SDS011;1833;42.718;23.270;2022-10-22T16:46:37;45.67;;;37.20;;
3633;SDS011;1833;42.718;23.270;2022-10-22T16:49:04;48.17;;;35.43;;
3633;SDS011;1833;42.718;23.270;2022-10-22T16:51:38;41.07;;;34.60;;
3633;SDS011;1833;42.718;23.270;2022-10-22T16:54:06;45.27;;;36.17;;
3633;SDS011;1833;42.718;23.270;2022-10-22T16:56:33;42.73;;;35.50;;
3633;SDS011;1833;42.718;23.270;2022-10-22T16:59:02;50.53;;;36.63;;
3633;SDS011;1833;42.718;23.270;2022-10-22T17:04:38;69.90;;;38.50;;
3633;SDS011;1833;42.718;23.270;2022-10-22T17:07:07;46.47;;;36.70;;
3633;SDS011;1833;42.718;23.270;2022-10-22T17:09:34;58.50;;;37.10;;
3633;SDS011;1833;42.718;23.270;2022-10-22T17:12:02;47.03;;;39.50;;
3633;SDS011;1833;42.718;23.270;2022-10-22T17:14:29;50.77;;;39.87;;
3633;SDS011;1833;42.718;23.270;2022-10-22T17:17:17;56.73;;;38.10;;
3633;SDS011;1833;42.718;23.270;2022-10-22T17:19:44;42.87;;;37.60;;
3633;SDS011;1833;42.718;23.270;2022-10-22T17:22:14;49.63;;;39.50;;
3633;SDS011;1833;42.718;23.270;2022-10-22T17:24:42;49.60;;;38.50;;
3633;SDS011;1833;42.718;23.270;2022-10-22T17:27:09;44.50;;;38.17;;
3633;SDS011;1833;42.718;23.270;2022-10-22T17:29:37;52.07;;;39.30;;
3633;SDS011;1833;42.718;23.270;2022-10-22T17:32:04;60.10;;;39.30;;
3633;SDS011;1833;42.718;23.270;2022-10-22T17:34:32;50.30;;;38.77;;
3633;SDS011;1833;42.718;23.270;2022-10-22T17:42:32;57.93;;;39.70;;
3633;SDS011;1833;42.718;23.270;2022-10-22T18:42:43;60.90;;;44.03;;
3633;SDS011;1833;42.718;23.270;2022-10-22T18:54:02;57.87;;;44.10;;
3633;SDS011;1833;42.718;23.270;2022-10-22T18:57:01;54.50;;;43.27;;
3633;SDS011;1833;42.718;23.270;2022-10-22T19:02:43;55.73;;;40.40;;
3633;SDS011;1833;42.718;23.270;2022-10-22T19:17:11;53.73;;;35.67;;
3633;SDS011;1833;42.718;23.270;2022-10-22T19:20:00;40.27;;;34.67;;
3633;SDS011;1833;42.718;23.270;2022-10-22T19:22:29;49.17;;;35.77;;
3633;SDS011;1833;42.718;23.270;2022-10-22T19:33:24;44.20;;;35.03;;
3633;SDS011;1833;42.718;23.270;2022-10-22T19:35:53;42.13;;;36.53;;
3633;SDS011;1833;42.718;23.270;2022-10-22T19:38:20;46.73;;;37.93;;
3633;SDS011;1833;42.718;23.270;2022-10-22T19:40:53;39.73;;;35.40;;
3633;SDS011;1833;42.718;23.270;2022-10-22T19:43:20;46.17;;;36.30;;
3633;SDS011;1833;42.718;23.270;2022-10-22T19:45:49;46.77;;;35.70;;
3633;SDS011;1833;42.718;23.270;2022-10-22T19:48:17;46.20;;;37.90;;
3633;SDS011;1833;42.718;23.270;2022-10-22T19:56:37;45.97;;;33.93;;
3633;SDS011;1833;42.718;23.270;2022-10-22T19:59:05;42.53;;;36.77;;
3633;SDS011;1833;42.718;23.270;2022-10-22T20:01:33;39.70;;;35.60;;
3633;SDS011;1833;42.718;23.270;2022-10-22T20:04:02;52.00;;;35.70;;
3633;SDS011;1833;42.718;23.270;2022-10-22T20:06:29;43.50;;;35.97;;
3633;SDS011;1833;42.718;23.270;2022-10-22T20:09:05;38.73;;;34.57;;
3633;SDS011;1833;42.718;23.270;2022-10-22T20:11:33;40.27;;;35.97;;
3633;SDS011;1833;42.718;23.270;2022-10-22T20:14:16;47.40;;;36.17;;
3633;SDS011;1833;42.718;23.270;2022-10-22T20:16:44;45.87;;;37.10;;
3633;SDS011;1833;42.718;23.270;2022-10-22T20:19:13;41.73;;;36.50;;
3633;SDS011;1833;42.718;23.270;2022-10-22T20:21:41;41.57;;;36.37;;
3633;SDS011;1833;42.718;23.270;2022-10-22T20:24:09;41.87;;;34.97;;
3633;SDS011;1833;42.718;23.270;2022-10-22T20:26:36;45.30;;;36.20;;
3633;SDS011;1833;42.718;23.270;2022-10-22T20:29:04;49.37;;;36.33;;
3633;SDS011;1833;42.718;23.270;2022-10-22T20:31:36;49.27;;;38.80;;
3633;SDS011;1833;42.718;23.270;2022-10-22T20:34:03;46.53;;;36.47;;
3633;SDS011;1833;42.718;23.270;2022-10-22T20:36:31;42.70;;;35.93;;
3633;SDS011;1833;42.718;23.270;2022-10-22T20:39:02;44.43;;;37.00;;
3633;SDS011;1833;42.718;23.270;2022-10-22T20:41:48;45.53;;;36.60;;
3633;SDS011;1833;42.718;23.270;2022-10-22T20:44:41;45.53;;;37.77;;
3633;SDS011;1833;42.718;23.270;2022-10-22T20:47:10;145.13;;;84.50;;
3633;SDS011;1833;42.718;23.270;2022-10-22T20:52:58;173.87;;;96.90;;
3633;SDS011;1833;42.718;23.270;2022-10-22T20:55:38;95.13;;;61.27;;
3633;SDS011;1833;42.718;23.270;2022-10-22T20:58:08;107.23;;;67.27;;
3633;SDS011;1833;42.718;23.270;2022-10-22T21:01:06;131.77;;;77.50;;
3633;SDS011;1833;42.718;23.270;2022-10-22T21:12:32;76.97;;;55.17;;
3633;SDS011;1833;42.718;23.270;2022-10-22T21:20:52;42.30;;;37.50;;
